createdAt,value
2018-03-16T00:00:49.701Z,80.58
2018-03-16T00:03:15.488Z,80.01
2018-03-16T00:05:41.287Z,79.62
2018-03-16T00:08:07.091Z,79.52
2018-03-16T00:10:32.875Z,79.66
2018-03-16T00:12:58.661Z,79.54
2018-03-16T00:15:24.538Z,79.50
2018-03-16T00:17:50.355Z,79.29
2018-03-16T00:20:16.159Z,79.54
2018-03-16T00:22:41.965Z,79.32
2018-03-16T00:25:07.778Z,79.73
2018-03-16T00:27:33.579Z,79.63
2018-03-16T00:29:59.389Z,79.36
2018-03-16T00:32:25.184Z,79.33
2018-03-16T00:34:50.989Z,79.38
2018-03-16T00:37:16.795Z,79.14
2018-03-16T00:39:42.572Z,79.86
2018-03-16T00:42:08.394Z,78.97
2018-03-16T00:44:34.208Z,79.41
2018-03-16T00:47:00.013Z,79.38
2018-03-16T00:49:25.891Z,79.82
2018-03-16T00:51:51.693Z,79.35
2018-03-16T00:54:17.483Z,79.46
2018-03-16T00:56:43.333Z,79.17
2018-03-16T00:59:09.135Z,79.18
2018-03-16T01:01:34.932Z,79.32
2018-03-16T01:04:00.741Z,79.56
2018-03-16T01:06:26.551Z,79.48
2018-03-16T01:08:52.356Z,79.34
2018-03-16T01:11:18.166Z,79.99
2018-03-16T01:13:43.947Z,79.67
2018-03-16T01:16:10.071Z,79.64
2018-03-16T01:18:35.877Z,79.27
2018-03-16T01:21:01.663Z,79.64
2018-03-16T01:23:27.489Z,80.18
2018-03-16T01:25:53.288Z,80.09
2018-03-16T01:28:19.079Z,80.05
2018-03-16T01:30:44.899Z,80.10
2018-03-16T01:33:10.703Z,81.15
2018-03-16T01:35:36.493Z,80.50
2018-03-16T01:38:02.578Z,81.24
2018-03-16T01:40:28.351Z,80.96
2018-03-16T01:42:54.128Z,80.57
2018-03-16T01:45:19.910Z,80.50
2018-03-16T01:47:46.014Z,80.81
2018-03-16T01:50:11.803Z,80.92
2018-03-16T01:52:37.592Z,80.65
2018-03-16T01:55:03.419Z,80.79
2018-03-16T01:57:29.208Z,80.86
2018-03-16T01:59:54.998Z,80.88
2018-03-16T02:02:20.858Z,80.54
2018-03-16T02:04:46.652Z,80.38
2018-03-16T02:07:12.460Z,80.77
2018-03-16T02:09:38.312Z,80.43
2018-03-16T02:12:04.120Z,80.70
2018-03-16T02:14:29.951Z,80.91
2018-03-16T02:16:55.760Z,80.99
2018-03-16T02:19:21.565Z,80.64
2018-03-16T02:21:47.367Z,80.88
2018-03-16T02:24:13.193Z,80.63
2018-03-16T02:26:39.001Z,80.80
2018-03-16T02:29:04.788Z,80.31
2018-03-16T02:31:30.600Z,81.06
2018-03-16T02:33:56.411Z,80.44
2018-03-16T02:36:22.219Z,80.38
2018-03-16T02:38:48.020Z,80.28
2018-03-16T02:41:13.838Z,80.19
2018-03-16T02:43:39.629Z,80.20
2018-03-16T02:46:05.448Z,80.46
2018-03-16T02:48:31.235Z,80.54
2018-03-16T02:50:57.028Z,80.36
2018-03-16T02:53:22.855Z,80.38
2018-03-16T02:55:48.652Z,80.74
2018-03-16T02:58:14.435Z,80.68
2018-03-16T03:00:40.247Z,80.63
2018-03-16T03:03:06.036Z,80.35
2018-03-16T03:05:31.839Z,80.25
2018-03-16T03:07:57.652Z,80.29
2018-03-16T03:10:23.456Z,80.02
2018-03-16T03:12:49.378Z,80.25
2018-03-16T03:15:15.192Z,80.21
2018-03-16T03:17:42.931Z,80.35
2018-03-16T03:20:08.752Z,80.94
2018-03-16T03:22:35.166Z,80.82
2018-03-16T03:25:00.951Z,80.62
2018-03-16T03:27:26.782Z,80.25
2018-03-16T03:29:52.573Z,80.58
2018-03-16T03:32:18.359Z,81.12
2018-03-16T03:34:44.171Z,80.75
2018-03-16T03:37:09.958Z,80.89
2018-03-16T03:39:35.806Z,80.57
2018-03-16T03:42:01.625Z,80.93
2018-03-16T03:44:27.416Z,80.75
2018-03-16T03:46:53.220Z,80.19
2018-03-16T03:49:19.034Z,80.74
2018-03-16T03:51:44.828Z,80.84
2018-03-16T03:54:10.620Z,81.25
2018-03-16T03:56:36.407Z,80.20
2018-03-16T03:59:02.223Z,80.81
2018-03-16T04:01:28.055Z,80.53
2018-03-16T04:03:53.832Z,80.28
2018-03-16T04:06:19.644Z,80.16
2018-03-16T04:08:45.486Z,80.10
2018-03-16T04:11:11.275Z,80.55
2018-03-16T04:13:37.070Z,80.39
2018-03-16T04:16:02.878Z,80.36
2018-03-16T04:18:28.688Z,80.55
2018-03-16T04:20:54.475Z,80.06
2018-03-16T04:23:20.256Z,79.99
2018-03-16T04:25:46.084Z,80.38
2018-03-16T04:28:11.882Z,79.95
2018-03-16T04:30:37.679Z,79.95
2018-03-16T04:33:03.484Z,79.77
2018-03-16T04:35:29.288Z,79.58
2018-03-16T04:37:55.075Z,79.87
2018-03-16T04:40:20.895Z,79.69
2018-03-16T04:42:46.691Z,79.19
2018-03-16T04:45:12.467Z,79.33
2018-03-16T04:47:38.360Z,79.08
2018-03-16T04:50:04.153Z,79.09
2018-03-16T04:52:29.939Z,79.10
2018-03-16T04:54:55.761Z,79.32
2018-03-16T04:57:21.557Z,78.86
2018-03-16T04:59:47.350Z,79.37
2018-03-16T05:02:13.222Z,79.55
2018-03-16T05:04:39.021Z,79.30
2018-03-16T05:07:04.803Z,79.26
2018-03-16T05:09:30.612Z,79.32
2018-03-16T05:11:56.416Z,78.74
2018-03-16T05:14:22.274Z,79.09
2018-03-16T05:16:48.082Z,78.75
2018-03-16T05:19:13.878Z,78.69
2018-03-16T05:21:39.711Z,78.64
2018-03-16T05:24:05.510Z,78.51
2018-03-16T05:26:31.295Z,78.49
2018-03-16T05:28:57.118Z,79.12
2018-03-16T05:31:22.903Z,78.56
2018-03-16T05:33:48.708Z,78.01
2018-03-16T05:36:14.508Z,78.33
2018-03-16T05:38:40.338Z,78.60
2018-03-16T05:41:06.143Z,78.15
2018-03-16T05:43:32.066Z,77.71
2018-03-16T05:45:57.867Z,77.92
2018-03-16T05:48:23.643Z,77.41
2018-03-16T05:50:49.468Z,77.26
2018-03-16T05:53:15.276Z,76.84
2018-03-16T05:55:41.079Z,76.82
2018-03-16T05:58:06.887Z,76.29
2018-03-16T06:00:32.695Z,76.69
2018-03-16T06:02:58.500Z,76.62
2018-03-16T06:05:24.306Z,76.47
2018-03-16T06:07:50.118Z,76.13
2018-03-16T06:10:15.927Z,76.24
2018-03-16T06:12:41.716Z,75.93
2018-03-16T06:15:07.506Z,75.90
2018-03-16T06:17:33.314Z,75.81
2018-03-16T06:19:59.136Z,74.91
2018-03-16T06:22:24.952Z,75.75
2018-03-16T06:24:50.730Z,75.98
2018-03-16T06:27:16.522Z,75.53
2018-03-16T06:29:42.589Z,75.36
2018-03-16T06:32:08.382Z,75.69
2018-03-16T06:34:34.170Z,78.49
2018-03-16T06:36:59.959Z,74.79
2018-03-16T06:39:25.757Z,75.48
2018-03-16T06:41:51.589Z,75.25
2018-03-16T06:44:17.378Z,74.96
2018-03-16T06:46:43.180Z,75.25
2018-03-16T06:49:08.994Z,75.13
2018-03-16T06:51:34.792Z,74.85
2018-03-16T06:54:00.589Z,74.95
2018-03-16T06:56:26.391Z,74.39
2018-03-16T06:58:52.240Z,74.53
2018-03-16T07:01:18.044Z,74.15
2018-03-16T07:03:43.895Z,74.11
2018-03-16T07:06:09.721Z,74.08
2018-03-16T07:08:35.550Z,73.99
2018-03-16T07:11:01.606Z,74.07
2018-03-16T07:13:27.391Z,74.05
2018-03-16T07:15:53.188Z,74.46
2018-03-16T07:18:19.356Z,74.26
2018-03-16T07:20:45.162Z,73.97
2018-03-16T07:23:10.967Z,73.67
2018-03-16T07:25:36.781Z,73.67
2018-03-16T07:28:02.592Z,74.31
2018-03-16T07:30:28.397Z,74.00
2018-03-16T07:32:54.191Z,74.18
2018-03-16T07:35:19.991Z,73.99
2018-03-16T07:37:45.806Z,74.69
2018-03-16T07:40:11.607Z,74.58
2018-03-16T07:42:37.395Z,75.29
2018-03-16T07:45:03.195Z,75.10
2018-03-16T07:47:28.987Z,73.15
2018-03-16T07:49:54.785Z,73.62
2018-03-16T07:52:20.595Z,71.50
2018-03-16T07:54:46.399Z,73.18
2018-03-16T07:57:19.075Z,74.28
2018-03-16T07:59:44.918Z,72.24
2018-03-16T08:02:10.748Z,73.15
2018-03-16T08:04:36.561Z,72.07
2018-03-16T08:07:02.384Z,69.49
2018-03-16T08:09:28.198Z,69.51
2018-03-16T08:11:54.066Z,69.38
2018-03-16T08:14:20.135Z,70.23
2018-03-16T08:16:45.935Z,69.59
2018-03-16T08:19:11.719Z,69.25
2018-03-16T08:21:37.626Z,69.82
2018-03-16T08:24:03.431Z,69.26
2018-03-16T08:26:29.220Z,69.90
2018-03-16T08:28:55.038Z,69.54
2018-03-16T08:31:20.840Z,69.16
2018-03-16T08:33:46.635Z,68.90
2018-03-16T08:36:12.447Z,68.50
2018-03-16T08:38:38.252Z,68.42
2018-03-16T08:41:04.036Z,68.73
2018-03-16T08:43:29.940Z,68.86
2018-03-16T08:45:55.742Z,67.87
2018-03-16T08:48:21.600Z,67.12
2018-03-16T08:50:47.408Z,66.31
2018-03-16T08:53:13.194Z,67.15
2018-03-16T08:55:38.967Z,67.23
2018-03-16T08:58:04.796Z,67.27
2018-03-16T09:00:30.601Z,67.51
2018-03-16T09:02:56.422Z,68.65
2018-03-16T09:05:22.221Z,67.85
2018-03-16T09:07:48.018Z,67.68
2018-03-16T09:10:13.794Z,67.32
2018-03-16T09:12:39.665Z,67.76
2018-03-16T09:15:05.415Z,68.60
2018-03-16T09:17:31.208Z,67.35
2018-03-16T09:19:57.011Z,67.38
2018-03-16T09:22:22.808Z,68.00
2018-03-16T09:24:48.588Z,67.93
2018-03-16T09:27:14.387Z,68.12
2018-03-16T09:29:40.217Z,66.98
2018-03-16T09:32:06.027Z,66.31
2018-03-16T09:34:31.835Z,65.73
2018-03-16T09:36:57.624Z,66.64
2018-03-16T09:39:23.421Z,66.06
2018-03-16T09:41:49.849Z,66.26
2018-03-16T09:44:15.677Z,65.29
2018-03-16T09:46:41.505Z,65.44
2018-03-16T09:49:07.300Z,64.48
2018-03-16T09:51:33.095Z,62.85
2018-03-16T09:53:58.907Z,63.52
2018-03-16T09:56:24.691Z,63.04
2018-03-16T09:58:50.484Z,63.25
2018-03-16T10:01:16.317Z,63.08
2018-03-16T10:03:42.172Z,62.53
2018-03-16T10:06:08.035Z,63.98
2018-03-16T10:08:33.855Z,64.48
2018-03-16T10:10:59.661Z,64.97
2018-03-16T10:13:25.455Z,65.08
2018-03-16T10:15:54.172Z,65.58
2018-03-16T10:18:19.975Z,65.09
2018-03-16T10:20:45.774Z,64.88
2018-03-16T10:23:11.628Z,64.86
2018-03-16T10:25:37.493Z,65.14
2018-03-16T10:28:03.266Z,65.34
2018-03-16T10:30:30.525Z,64.82
2018-03-16T10:32:56.568Z,64.82
2018-03-16T10:35:22.384Z,64.68
2018-03-16T10:37:49.437Z,65.25
2018-03-16T10:40:16.172Z,65.22
2018-03-16T10:42:42.031Z,64.81
2018-03-16T10:45:08.163Z,65.87
2018-03-16T10:47:34.223Z,65.46
2018-03-16T10:50:00.061Z,65.73
2018-03-16T10:52:25.878Z,66.17
2018-03-16T10:54:51.780Z,65.86
2018-03-16T10:57:17.621Z,66.35
2018-03-16T10:59:43.492Z,67.36
2018-03-16T11:02:09.364Z,67.43
2018-03-16T11:04:40.246Z,70.15
2018-03-16T11:07:07.940Z,61.11
2018-03-16T11:09:33.796Z,63.90
2018-03-16T11:11:59.608Z,62.34
2018-03-16T11:14:26.427Z,60.71
2018-03-16T11:16:52.362Z,60.86
2018-03-16T11:19:18.188Z,59.08
2018-03-16T11:21:44.600Z,61.18
2018-03-16T11:24:10.446Z,60.88
2018-03-16T11:26:36.248Z,60.57
2018-03-16T11:29:02.086Z,60.35
2018-03-16T11:31:27.987Z,61.18
2018-03-16T11:33:54.856Z,59.36
2018-03-16T11:36:20.689Z,61.17
2018-03-16T11:38:46.509Z,59.89
2018-03-16T11:41:12.728Z,58.09
2018-03-16T11:43:38.523Z,62.62
2018-03-16T11:46:04.323Z,56.98
2018-03-16T11:48:31.529Z,58.16
2018-03-16T11:50:57.336Z,59.39
2018-03-16T11:53:23.159Z,58.20
2018-03-16T11:55:48.983Z,57.91
2018-03-16T11:58:14.825Z,57.81
2018-03-16T12:00:40.658Z,54.93
2018-03-16T12:03:06.460Z,55.86
2018-03-16T12:05:33.288Z,57.95
2018-03-16T12:07:59.119Z,58.26
2018-03-16T12:10:24.930Z,58.50
2018-03-16T12:12:50.730Z,58.67
2018-03-16T12:15:16.855Z,58.99
2018-03-16T12:17:42.676Z,58.65
2018-03-16T12:20:08.474Z,57.63
2018-03-16T12:22:34.291Z,59.83
2018-03-16T12:25:00.106Z,58.26
2018-03-16T12:27:25.986Z,57.73
2018-03-16T12:29:51.816Z,59.49
2018-03-16T12:32:17.619Z,59.20
2018-03-16T12:34:43.403Z,57.99
2018-03-16T12:37:09.244Z,56.95
2018-03-16T12:39:35.083Z,57.35
2018-03-16T12:42:00.915Z,57.17
2018-03-16T12:44:26.721Z,59.70
2018-03-16T12:46:52.502Z,59.99
2018-03-16T12:49:18.283Z,60.38
2018-03-16T12:51:44.379Z,57.25
2018-03-16T12:54:10.211Z,60.56
2018-03-16T12:56:35.998Z,61.33
2018-03-16T12:59:02.116Z,58.31
2018-03-16T13:01:27.951Z,58.03
2018-03-16T13:03:53.731Z,57.31
2018-03-16T13:06:19.560Z,58.69
2018-03-16T13:08:45.642Z,56.23
2018-03-16T13:11:11.497Z,55.95
2018-03-16T13:13:37.308Z,57.26
2018-03-16T13:16:03.165Z,58.87
2018-03-16T13:18:29.307Z,59.41
2018-03-16T13:20:55.111Z,59.13
2018-03-16T13:23:21.234Z,60.25
2018-03-16T13:25:47.043Z,57.76
2018-03-16T13:28:12.856Z,57.32
2018-03-16T13:30:38.692Z,56.50
2018-03-16T13:33:04.521Z,57.07
2018-03-16T13:35:30.345Z,55.12
2018-03-16T13:37:56.197Z,54.97
2018-03-16T13:40:22.025Z,56.24
2018-03-16T13:42:48.885Z,54.89
2018-03-16T13:45:15.068Z,55.00
2018-03-16T13:47:40.910Z,54.50
2018-03-16T13:50:07.611Z,55.12
2018-03-16T13:52:33.409Z,53.26
2018-03-16T13:54:59.192Z,53.52
2018-03-16T13:57:25.068Z,55.00
2018-03-16T13:59:50.871Z,54.93
2018-03-16T14:02:16.667Z,55.94
2018-03-16T14:04:42.488Z,53.44
2018-03-16T14:07:08.303Z,55.05
2018-03-16T14:09:34.086Z,56.50
2018-03-16T14:12:00.118Z,55.38
2018-03-16T14:14:25.935Z,54.92
2018-03-16T14:16:52.053Z,55.15
2018-03-16T14:19:17.851Z,57.29
2018-03-16T14:21:43.671Z,58.77
2018-03-16T14:24:09.462Z,58.92
2018-03-16T14:26:35.432Z,59.06
2018-03-16T14:29:01.281Z,57.78
2018-03-16T14:31:27.092Z,58.68
2018-03-16T14:33:52.876Z,58.17
2018-03-16T14:36:18.682Z,58.40
2018-03-16T14:38:44.475Z,58.43
2018-03-16T14:41:10.271Z,57.82
2018-03-16T14:43:36.096Z,57.81
2018-03-16T14:46:01.906Z,58.25
2018-03-16T14:48:27.725Z,58.07
2018-03-16T14:50:53.511Z,58.40
2018-03-16T14:53:19.319Z,58.55
2018-03-16T14:55:45.157Z,58.47
2018-03-16T14:58:10.987Z,58.39
2018-03-16T15:00:36.772Z,57.48
2018-03-16T15:03:02.895Z,58.15
2018-03-16T15:05:28.691Z,58.17
2018-03-16T15:07:54.488Z,58.34
2018-03-16T15:10:20.306Z,58.43
2018-03-16T15:12:46.129Z,58.05
2018-03-16T15:15:11.960Z,57.76
2018-03-16T15:17:37.809Z,58.11
2018-03-16T15:20:03.838Z,58.27
2018-03-16T15:22:29.685Z,57.72
2018-03-16T15:24:57.399Z,57.56
2018-03-16T15:27:23.235Z,57.83
2018-03-16T15:29:49.037Z,57.79
2018-03-16T15:32:14.874Z,57.59
2018-03-16T15:34:40.654Z,56.87
2018-03-16T15:37:06.457Z,57.39
2018-03-16T15:39:33.316Z,57.42
2018-03-16T15:41:59.561Z,58.06
2018-03-16T15:44:25.339Z,57.60
2018-03-16T15:46:51.908Z,57.20
2018-03-16T15:49:17.721Z,57.08
2018-03-16T15:51:44.035Z,57.17
2018-03-16T15:54:09.921Z,56.66
2018-03-16T15:56:36.760Z,56.14
2018-03-16T15:59:02.571Z,56.46
2018-03-16T16:01:29.076Z,56.54
2018-03-16T16:03:54.856Z,56.41
2018-03-16T16:06:20.652Z,56.22
2018-03-16T16:08:46.638Z,56.35
2018-03-16T16:11:12.445Z,56.73
2018-03-16T16:13:38.228Z,56.78
2018-03-16T16:16:04.308Z,56.40
2018-03-16T16:18:30.095Z,57.33
2018-03-16T16:20:55.896Z,57.01
2018-03-16T16:23:21.755Z,58.05
2018-03-16T16:25:47.548Z,56.05
2018-03-16T16:28:13.367Z,55.29
2018-03-16T16:30:39.174Z,54.31
2018-03-16T16:33:04.959Z,54.04
2018-03-16T16:35:30.779Z,54.46
2018-03-16T16:37:56.578Z,55.66
2018-03-16T16:40:22.357Z,56.20
2018-03-16T16:42:48.180Z,52.88
2018-03-16T16:45:13.976Z,54.48
2018-03-16T16:47:39.796Z,54.56
2018-03-16T16:50:05.984Z,53.40
2018-03-16T16:52:31.784Z,54.10
2018-03-16T16:54:57.675Z,53.06
2018-03-16T16:57:23.382Z,52.68
2018-03-16T16:59:49.222Z,53.20
2018-03-16T17:02:15.121Z,51.33
2018-03-16T17:04:40.932Z,53.95
2018-03-16T17:07:06.719Z,52.81
2018-03-16T17:09:32.499Z,53.22
2018-03-16T17:11:58.333Z,50.61
2018-03-16T17:14:24.122Z,52.58
2018-03-16T17:16:49.935Z,53.48
2018-03-16T17:19:15.764Z,52.38
2018-03-16T17:21:41.604Z,51.72
2018-03-16T17:24:07.398Z,54.38
2018-03-16T17:26:33.191Z,54.48
2018-03-16T17:28:59.023Z,51.76
2018-03-16T17:31:24.821Z,55.02
2018-03-16T17:33:50.615Z,57.78
2018-03-16T17:36:16.480Z,58.81
2018-03-16T17:38:42.279Z,56.36
2018-03-16T17:41:08.120Z,57.57
2018-03-16T17:43:34.011Z,58.97
2018-03-16T17:45:59.856Z,56.73
2018-03-16T17:48:25.691Z,57.36
2018-03-16T17:50:51.542Z,57.55
2018-03-16T17:53:17.345Z,57.98
2018-03-16T17:55:43.261Z,58.24
2018-03-16T17:58:09.554Z,58.71
2018-03-16T18:00:35.880Z,58.95
2018-03-16T18:03:02.055Z,58.70
2018-03-16T18:05:27.936Z,58.91
2018-03-16T18:07:54.191Z,59.01
2018-03-16T18:10:20.510Z,58.91
2018-03-16T18:12:46.339Z,59.74
2018-03-16T18:15:12.125Z,59.00
2018-03-16T18:17:37.930Z,58.93
2018-03-16T18:20:03.787Z,59.31
2018-03-16T18:22:29.602Z,59.28
2018-03-16T18:24:55.399Z,59.51
2018-03-16T18:27:21.188Z,59.72
2018-03-16T18:29:46.991Z,58.98
2018-03-16T18:32:12.806Z,59.11
2018-03-16T18:34:38.621Z,59.11
2018-03-16T18:37:04.415Z,59.75
2018-03-16T18:39:30.217Z,57.87
2018-03-16T18:41:56.014Z,57.20
2018-03-16T18:44:21.804Z,57.10
2018-03-16T18:46:47.600Z,57.18
2018-03-16T18:49:13.404Z,57.67
2018-03-16T18:51:39.213Z,57.84
2018-03-16T18:54:05.023Z,58.02
2018-03-16T18:56:30.823Z,58.87
2018-03-16T18:58:56.642Z,58.63
2018-03-16T19:01:22.443Z,59.58
2018-03-16T19:03:48.256Z,60.07
2018-03-16T19:06:14.066Z,61.16
2018-03-16T19:08:39.874Z,60.89
2018-03-16T19:11:05.666Z,68.00
2018-03-16T19:13:31.468Z,63.47
2018-03-16T19:15:57.272Z,61.15
2018-03-16T19:18:23.151Z,61.40
2018-03-16T19:20:49.027Z,60.20
2018-03-16T19:23:14.816Z,59.12
2018-03-16T19:25:40.628Z,59.41
2018-03-16T19:28:06.439Z,59.73
2018-03-16T19:30:32.261Z,58.83
2018-03-16T19:32:58.075Z,59.02
2018-03-16T19:35:23.881Z,58.05
2018-03-16T19:37:49.690Z,58.19
2018-03-16T19:40:15.548Z,57.23
2018-03-16T19:42:41.344Z,57.95
2018-03-16T19:45:07.136Z,58.41
2018-03-16T19:47:32.936Z,57.66
2018-03-16T19:49:58.736Z,57.51
2018-03-16T19:52:24.843Z,58.43
2018-03-16T19:54:50.660Z,58.90
2018-03-16T19:57:16.452Z,58.48
2018-03-16T19:59:42.263Z,58.25
2018-03-16T20:02:08.087Z,58.81
2018-03-16T20:04:33.904Z,59.91
2018-03-16T20:06:59.720Z,58.75
2018-03-16T20:09:25.534Z,59.45
2018-03-16T20:11:51.343Z,59.74
2018-03-16T20:14:17.173Z,59.49
2018-03-16T20:16:42.994Z,59.53
2018-03-16T20:19:08.814Z,58.94
2018-03-16T20:21:34.766Z,59.12
2018-03-16T20:24:00.669Z,58.86
2018-03-16T20:26:26.526Z,58.48
2018-03-16T20:28:52.501Z,57.54
2018-03-16T20:31:21.062Z,57.73
2018-03-16T20:33:46.946Z,58.45
2018-03-16T20:36:13.737Z,58.57
2018-03-16T20:38:40.384Z,58.86
2018-03-16T20:41:06.240Z,59.76
2018-03-16T20:43:32.990Z,60.73
2018-03-16T20:45:58.820Z,62.74
2018-03-16T20:48:24.657Z,61.95
2018-03-16T20:50:50.513Z,61.75
2018-03-16T20:53:16.315Z,62.23
2018-03-16T20:55:42.650Z,61.69
2018-03-16T20:58:08.507Z,62.04
2018-03-16T21:00:34.475Z,61.89
2018-03-16T21:03:00.906Z,61.38
2018-03-16T21:05:26.718Z,61.89
2018-03-16T21:07:52.575Z,61.42
2018-03-16T21:10:19.109Z,61.71
2018-03-16T21:12:44.987Z,61.77
2018-03-16T21:15:10.790Z,61.07
2018-03-16T21:17:36.747Z,63.87
2018-03-16T21:20:02.623Z,62.35
2018-03-16T21:22:28.499Z,60.77
2018-03-16T21:24:54.308Z,60.17
2018-03-16T21:27:20.763Z,60.18
2018-03-16T21:29:49.206Z,57.62
2018-03-16T21:32:15.060Z,57.00
2018-03-16T21:34:40.926Z,56.64
2018-03-16T21:37:07.653Z,57.97
2018-03-16T21:39:33.472Z,55.16
2018-03-16T21:42:00.235Z,54.76
2018-03-16T21:44:26.032Z,55.37
2018-03-16T21:46:51.846Z,55.43
2018-03-16T21:49:18.624Z,55.01
2018-03-16T21:51:44.510Z,55.22
2018-03-16T21:54:10.336Z,56.08
2018-03-16T21:56:36.966Z,56.19
2018-03-16T21:59:02.820Z,57.33
2018-03-16T22:01:28.773Z,59.32
2018-03-16T22:03:54.577Z,60.62
2018-03-16T22:06:21.300Z,61.60
2018-03-16T22:08:47.121Z,60.98
2018-03-16T22:11:12.965Z,60.67
2018-03-16T22:13:38.805Z,60.48
2018-03-16T22:16:04.621Z,59.61
2018-03-16T22:18:31.107Z,57.86
2018-03-16T22:20:56.899Z,68.78
2018-03-16T22:23:23.187Z,66.21
2018-03-16T22:25:49.000Z,62.48
2018-03-16T22:28:15.437Z,54.02
2018-03-16T22:30:41.256Z,57.00
2018-03-16T22:33:07.643Z,58.54
2018-03-16T22:35:33.483Z,59.93
2018-03-16T22:37:59.413Z,61.40
2018-03-16T22:40:26.242Z,63.58
2018-03-16T22:42:52.136Z,66.17
2018-03-16T22:45:17.955Z,68.05
2018-03-16T22:47:43.826Z,70.62
2018-03-16T22:50:09.663Z,71.98
2018-03-16T22:52:35.455Z,72.83
2018-03-16T22:55:01.271Z,72.40
2018-03-16T22:57:27.193Z,71.97
2018-03-16T22:59:53.010Z,70.97
2018-03-16T23:02:18.803Z,70.51
2018-03-16T23:04:44.655Z,69.97
2018-03-16T23:07:10.609Z,66.23
2018-03-16T23:09:36.432Z,64.22
2018-03-16T23:12:02.244Z,63.66
2018-03-16T23:14:28.109Z,62.85
2018-03-16T23:16:53.971Z,62.74
2018-03-16T23:19:19.762Z,63.32
2018-03-16T23:21:45.579Z,63.92
2018-03-16T23:24:11.380Z,64.12
2018-03-16T23:26:37.185Z,64.06
2018-03-16T23:29:02.983Z,63.72
2018-03-16T23:31:28.793Z,63.53
2018-03-16T23:33:54.597Z,63.88
2018-03-16T23:36:20.426Z,63.39
2018-03-16T23:38:46.220Z,63.08
2018-03-16T23:41:12.010Z,63.01
2018-03-16T23:43:37.914Z,63.15
2018-03-16T23:46:03.729Z,62.85
2018-03-16T23:48:29.535Z,62.77
2018-03-16T23:50:55.363Z,62.67
2018-03-16T23:53:21.155Z,62.49
2018-03-16T23:55:46.950Z,62.76
2018-03-16T23:58:12.778Z,62.80
